createdAt,value
2023-03-12T00:00:11.748Z,100568.28
2023-03-12T00:02:41.207Z,100575.19
2023-03-12T00:05:09.511Z,100569.69
2023-03-12T00:07:38.753Z,100560.03
2023-03-12T00:10:09.717Z,100565.13
2023-03-12T00:12:37.823Z,100562.31
2023-03-12T00:15:06.468Z,100575.13
2023-03-12T00:17:34.234Z,100576.28
2023-03-12T00:20:01.841Z,100584.56
2023-03-12T00:22:29.546Z,100579.09
2023-03-12T00:24:58.239Z,100573.47
2023-03-12T00:27:28.604Z,100580.81
2023-03-12T00:29:56.361Z,100578.13
2023-03-12T00:32:24.698Z,100576.75
2023-03-12T00:34:52.544Z,100573.38
2023-03-12T00:37:20.305Z,100571.97
2023-03-12T00:39:47.993Z,100570.28
2023-03-12T00:42:15.993Z,100569.44
2023-03-12T00:44:45.442Z,100574.34
2023-03-12T00:47:13.972Z,100568.06
2023-03-12T00:49:41.761Z,100566.06
2023-03-12T00:52:09.570Z,100561.00
2023-03-12T00:54:37.531Z,100556.78
2023-03-12T00:57:05.677Z,100552.03
2023-03-12T00:59:33.640Z,100555.13
2023-03-12T01:02:02.660Z,100558.03
2023-03-12T01:04:30.371Z,100551.44
2023-03-12T01:06:58.192Z,100545.56
2023-03-12T01:09:25.959Z,100550.06
2023-03-12T01:11:55.687Z,100552.03
2023-03-12T01:14:24.182Z,100549.53
2023-03-12T01:16:53.849Z,100547.84
2023-03-12T01:19:22.944Z,100551.06
2023-03-12T01:21:50.605Z,100554.03
2023-03-12T01:24:18.271Z,100552.66
2023-03-12T01:26:45.951Z,100548.44
2023-03-12T01:29:13.647Z,100549.72
2023-03-12T01:31:41.386Z,100550.84
2023-03-12T01:34:12.365Z,100546.50
2023-03-12T01:36:41.769Z,100554.06
2023-03-12T01:39:09.502Z,100547.06
2023-03-12T01:41:37.384Z,100543.63
2023-03-12T01:44:05.661Z,100543.06
2023-03-12T01:46:34.967Z,100541.78
2023-03-12T01:49:08.793Z,100547.28
2023-03-12T01:51:41.048Z,100542.50
2023-03-12T01:54:14.122Z,100541.41
2023-03-12T01:56:42.893Z,100543.94
2023-03-12T01:59:18.848Z,100540.88
2023-03-12T02:01:47.243Z,100538.22
2023-03-12T02:04:17.083Z,100535.28
2023-03-12T02:06:50.099Z,100532.50
2023-03-12T02:09:21.456Z,100535.84
2023-03-12T02:11:49.193Z,100527.16
2023-03-12T02:14:17.562Z,100522.66
2023-03-12T02:16:46.200Z,100519.00
2023-03-12T02:19:19.787Z,100516.50
2023-03-12T02:21:47.454Z,100515.91
2023-03-12T02:24:23.785Z,100521.53
2023-03-12T02:26:52.910Z,100521.13
2023-03-12T02:29:20.984Z,100520.13
2023-03-12T02:31:54.509Z,100522.66
2023-03-12T02:34:22.311Z,100522.81
2023-03-12T02:36:50.606Z,100515.22
2023-03-12T02:39:19.673Z,100517.72
2023-03-12T02:41:53.596Z,100523.22
2023-03-12T02:44:25.282Z,100530.94
2023-03-12T02:46:55.493Z,100522.94
2023-03-12T02:49:25.947Z,100529.97
2023-03-12T02:51:54.143Z,100532.66
2023-03-12T02:54:22.800Z,100529.56
2023-03-12T02:56:51.091Z,100530.00
2023-03-12T02:59:20.697Z,100526.88
2023-03-12T03:01:54.465Z,100530.81
2023-03-12T03:04:22.375Z,100527.44
2023-03-12T03:06:50.529Z,100527.16
2023-03-12T03:09:19.256Z,100530.09
2023-03-12T03:11:47.016Z,100533.63
2023-03-12T03:14:14.657Z,100528.97
2023-03-12T03:16:42.289Z,100528.41
2023-03-12T03:19:11.358Z,100530.81
2023-03-12T03:21:39.418Z,100532.34
2023-03-12T03:24:07.555Z,100535.56
2023-03-12T03:26:35.243Z,100535.56
2023-03-12T03:29:02.968Z,100531.06
2023-03-12T03:31:31.745Z,100530.38
2023-03-12T03:33:59.641Z,100531.50
2023-03-12T03:36:28.703Z,100532.91
2023-03-12T03:38:56.388Z,100519.56
2023-03-12T03:41:24.476Z,100520.41
2023-03-12T03:43:52.116Z,100523.78
2023-03-12T03:46:19.794Z,100521.69
2023-03-12T03:48:47.651Z,100519.84
2023-03-12T03:51:15.525Z,100522.50
2023-03-12T03:53:44.623Z,100527.84
2023-03-12T03:56:14.667Z,100523.34
2023-03-12T03:58:42.837Z,100525.88
2023-03-12T04:01:10.958Z,100523.47
2023-03-12T04:03:38.615Z,100530.09
2023-03-12T04:06:08.182Z,100532.50
2023-03-12T04:08:37.465Z,100523.47
2023-03-12T04:11:10.268Z,100521.69
2023-03-12T04:13:38.075Z,100523.34
2023-03-12T04:16:06.433Z,100525.19
2023-03-12T04:18:35.984Z,100529.53
2023-03-12T04:21:03.800Z,100517.63
2023-03-12T04:23:31.487Z,100520.41
2023-03-12T04:25:59.563Z,100519.41
2023-03-12T04:28:28.616Z,100528.28
2023-03-12T04:30:56.845Z,100533.75
2023-03-12T04:33:24.524Z,100531.22
2023-03-12T04:35:52.857Z,100530.66
2023-03-12T04:38:21.334Z,100528.00
2023-03-12T04:40:57.815Z,100531.06
2023-03-12T04:43:25.530Z,100525.75
2023-03-12T04:45:54.544Z,100535.88
2023-03-12T04:48:22.221Z,100526.59
2023-03-12T04:50:50.502Z,100528.84
2023-03-12T04:53:18.415Z,100531.06
2023-03-12T04:55:46.162Z,100527.16
2023-03-12T04:58:13.946Z,100528.28
2023-03-12T05:00:42.143Z,100520.41
2023-03-12T05:03:11.159Z,100524.09
2023-03-12T05:05:38.840Z,100532.75
2023-03-12T05:08:07.004Z,100524.09
2023-03-12T05:10:35.107Z,100515.50
2023-03-12T05:13:02.737Z,100520.13
2023-03-12T05:15:30.490Z,100515.94
2023-03-12T05:17:58.163Z,100511.41
2023-03-12T05:20:27.097Z,100521.81
2023-03-12T05:22:54.736Z,100509.16
2023-03-12T05:25:22.372Z,100511.00
2023-03-12T05:27:50.067Z,100509.72
2023-03-12T05:30:18.315Z,100506.78
2023-03-12T05:32:46.532Z,100500.88
2023-03-12T05:35:14.498Z,100503.94
2023-03-12T05:37:43.434Z,100507.31
2023-03-12T05:40:12.600Z,100508.59
2023-03-12T05:42:40.337Z,100500.28
2023-03-12T05:45:09.248Z,100494.28
2023-03-12T05:47:36.993Z,100491.72
2023-03-12T05:50:05.380Z,100492.28
2023-03-12T05:52:33.041Z,100485.81
2023-03-12T05:55:02.145Z,100481.91
2023-03-12T05:57:30.407Z,100482.59
2023-03-12T05:59:57.998Z,100479.66
2023-03-12T06:02:25.724Z,100482.72
2023-03-12T06:04:53.454Z,100477.72
2023-03-12T06:07:21.158Z,100477.97
2023-03-12T06:09:48.823Z,100476.84
2023-03-12T06:12:17.730Z,100478.25
2023-03-12T06:14:45.512Z,100469.13
2023-03-12T06:17:13.338Z,100471.13
2023-03-12T06:19:40.954Z,100464.78
2023-03-12T06:22:08.613Z,100456.31
2023-03-12T06:24:36.243Z,100465.91
2023-03-12T06:27:04.093Z,100455.50
2023-03-12T06:29:33.117Z,100455.91
2023-03-12T06:32:00.798Z,100450.72
2023-03-12T06:34:28.446Z,100454.53
2023-03-12T06:36:56.162Z,100450.16
2023-03-12T06:39:23.875Z,100445.13
2023-03-12T06:41:52.563Z,100447.22
2023-03-12T06:44:20.256Z,100449.47
2023-03-12T06:46:49.365Z,100446.78
2023-03-12T06:49:16.965Z,100450.97
2023-03-12T06:51:44.592Z,100440.31
2023-03-12T06:54:12.299Z,100449.44
2023-03-12T06:56:40.122Z,100442.41
2023-03-12T06:59:08.073Z,100445.88
2023-03-12T07:01:35.865Z,100439.41
2023-03-12T07:04:04.938Z,100445.81
2023-03-12T07:06:32.743Z,100437.97
2023-03-12T07:09:00.481Z,100434.56
2023-03-12T07:11:28.112Z,100437.25
2023-03-12T07:13:55.886Z,100431.47
2023-03-12T07:16:23.588Z,100427.94
2023-03-12T07:18:51.230Z,100427.69
2023-03-12T07:21:22.729Z,100424.38
2023-03-12T07:23:50.782Z,100418.22
2023-03-12T07:26:19.243Z,100411.03
2023-03-12T07:28:47.305Z,100414.72
2023-03-12T07:31:14.951Z,100407.53
2023-03-12T07:33:42.695Z,100420.22
2023-03-12T07:36:10.573Z,100412.38
2023-03-12T07:38:39.683Z,100408.16
2023-03-12T07:41:07.752Z,100413.91
2023-03-12T07:43:35.540Z,100408.25
2023-03-12T07:46:03.577Z,100416.44
2023-03-12T07:48:31.235Z,100417.56
2023-03-12T07:50:59.117Z,100417.56
2023-03-12T07:53:26.720Z,100411.63
2023-03-12T07:55:56.148Z,100415.28
2023-03-12T07:58:24.045Z,100420.03
2023-03-12T08:00:53.524Z,100416.06
2023-03-12T08:03:21.397Z,100411.28
2023-03-12T08:05:57.261Z,100414.38
2023-03-12T08:08:27.416Z,100413.09
2023-03-12T08:10:56.666Z,100404.69
2023-03-12T08:13:24.582Z,100394.75
2023-03-12T08:15:53.241Z,100384.63
2023-03-12T08:18:21.540Z,100373.56
2023-03-12T08:20:51.141Z,100371.78
2023-03-12T08:23:19.179Z,100372.09
2023-03-12T08:25:49.237Z,100369.75
2023-03-12T08:28:19.468Z,100376.66
2023-03-12T08:30:48.654Z,100383.44
2023-03-12T08:33:16.513Z,100396.81
2023-03-12T08:35:44.533Z,100386.91
2023-03-12T08:38:13.024Z,100398.44
2023-03-12T08:40:40.830Z,100389.13
2023-03-12T08:43:08.906Z,100391.84
2023-03-12T08:45:38.619Z,100393.16
2023-03-12T08:48:07.612Z,100394.38
2023-03-12T08:50:35.240Z,100402.75
2023-03-12T08:53:02.887Z,100399.53
2023-03-12T08:55:30.644Z,100395.19
2023-03-12T08:57:59.687Z,100400.28
2023-03-12T09:00:27.322Z,100403.72
2023-03-12T09:02:58.257Z,100399.97
2023-03-12T09:05:28.066Z,100392.97
2023-03-12T09:07:55.727Z,100390.91
2023-03-12T09:10:23.493Z,100390.00
2023-03-12T09:12:51.110Z,100390.38
2023-03-12T09:15:18.977Z,100391.34
2023-03-12T09:17:47.900Z,100391.31
2023-03-12T09:20:16.941Z,100384.50
2023-03-12T09:22:44.601Z,100381.81
2023-03-12T09:25:13.142Z,100381.31
2023-03-12T09:27:42.488Z,100398.19
2023-03-12T09:30:12.882Z,100385.97
2023-03-12T09:32:40.584Z,100384.03
2023-03-12T09:35:09.932Z,100383.06
2023-03-12T09:37:39.114Z,100373.75
2023-03-12T09:40:08.656Z,100380.47
2023-03-12T09:42:42.370Z,100384.06
2023-03-12T09:45:17.571Z,100382.28
2023-03-12T09:47:50.137Z,100373.91
2023-03-12T09:50:26.681Z,100355.53
2023-03-12T09:53:00.352Z,100329.09
2023-03-12T09:55:32.321Z,100330.72
2023-03-12T09:58:00.081Z,100324.91
2023-03-12T10:00:31.127Z,100327.78
2023-03-12T10:03:23.957Z,100320.25
2023-03-12T10:06:04.056Z,100306.50
2023-03-12T10:08:45.096Z,100303.31
2023-03-12T10:11:24.057Z,100306.03
2023-03-12T10:14:06.068Z,100303.03
2023-03-12T10:16:53.756Z,100299.38
2023-03-12T10:19:38.028Z,100289.16
2023-03-12T10:22:15.308Z,100294.00
2023-03-12T10:24:57.505Z,100282.78
2023-03-12T10:27:29.440Z,100271.53
2023-03-12T10:29:58.560Z,100276.41
2023-03-12T10:32:32.139Z,100267.00
2023-03-12T10:35:03.258Z,100275.56
2023-03-12T10:37:38.297Z,100273.22
2023-03-12T10:40:13.458Z,100265.00
2023-03-12T10:42:41.143Z,100265.88
2023-03-12T10:45:22.000Z,100253.81
2023-03-12T10:47:52.949Z,100251.97
2023-03-12T10:50:23.464Z,100256.50
2023-03-12T10:52:54.576Z,100262.84
2023-03-12T10:55:27.322Z,100252.44
2023-03-12T10:57:55.379Z,100244.94
2023-03-12T11:00:26.180Z,100254.59
2023-03-12T11:03:00.363Z,100255.59
2023-03-12T11:05:31.092Z,100247.03
2023-03-12T11:08:01.862Z,100237.31
2023-03-12T11:10:43.882Z,100243.19
2023-03-12T11:13:24.891Z,100246.03
2023-03-12T11:15:53.885Z,100254.88
2023-03-12T11:18:25.397Z,100256.38
2023-03-12T11:20:56.443Z,100247.00
2023-03-12T11:23:27.599Z,100249.34
2023-03-12T11:25:59.297Z,100235.13
2023-03-12T11:28:36.447Z,100232.28
2023-03-12T11:31:07.618Z,100220.53
2023-03-12T11:33:35.452Z,100212.84
2023-03-12T11:36:25.112Z,100213.16
2023-03-12T11:39:04.275Z,100213.91
2023-03-12T11:41:49.400Z,100210.88
2023-03-12T11:44:26.196Z,100197.69
2023-03-12T11:47:07.672Z,100197.16
2023-03-12T11:49:55.178Z,100185.09
2023-03-12T11:52:33.378Z,100176.06
2023-03-12T11:55:16.406Z,100176.91
2023-03-12T11:57:58.813Z,100181.72
2023-03-12T12:00:32.244Z,100180.91
2023-03-12T12:03:24.940Z,100164.50
2023-03-12T12:06:00.519Z,100156.81
2023-03-12T12:08:38.970Z,100158.97
2023-03-12T12:11:15.588Z,100163.00
2023-03-12T12:13:58.531Z,100161.63
2023-03-12T12:16:52.354Z,100144.25
2023-03-12T12:19:29.211Z,100135.25
2023-03-12T12:22:14.995Z,100126.91
2023-03-12T12:25:02.325Z,100127.38
2023-03-12T12:27:39.921Z,100124.69
2023-03-12T12:30:20.637Z,100131.22
2023-03-12T12:33:06.257Z,100120.69
2023-03-12T12:35:37.994Z,100133.72
2023-03-12T12:38:14.203Z,100129.88
2023-03-12T12:40:45.322Z,100131.75
2023-03-12T12:43:27.910Z,100137.44
2023-03-12T12:46:04.198Z,100131.22
2023-03-12T12:48:36.313Z,100119.38
2023-03-12T12:51:08.774Z,100105.63
2023-03-12T12:53:44.870Z,100108.66
2023-03-12T12:56:20.608Z,100106.63
2023-03-12T12:59:04.994Z,100100.63
2023-03-12T13:01:36.514Z,100102.63
2023-03-12T13:04:12.220Z,100092.44
2023-03-12T13:06:57.978Z,100098.13
2023-03-12T13:09:38.406Z,100092.47
2023-03-12T13:12:15.628Z,100092.78
2023-03-12T13:14:44.672Z,100088.44
2023-03-12T13:17:28.913Z,100073.03
2023-03-12T13:20:10.798Z,100080.06
2023-03-12T13:22:54.560Z,100069.03
2023-03-12T13:25:31.401Z,100068.38
2023-03-12T13:28:18.018Z,100065.69
2023-03-12T13:30:51.339Z,100062.34
2023-03-12T13:33:37.000Z,100069.53
2023-03-12T13:36:11.302Z,100054.66
2023-03-12T13:38:52.882Z,100055.31
2023-03-12T13:41:32.447Z,100043.28
2023-03-12T13:44:00.563Z,100049.47
2023-03-12T13:46:41.147Z,100040.44
2023-03-12T13:49:17.065Z,100026.72
2023-03-12T13:51:48.063Z,100022.72
2023-03-12T13:54:19.966Z,100026.53
2023-03-12T13:56:57.855Z,100032.56
2023-03-12T13:59:28.110Z,100027.88
2023-03-12T14:02:00.492Z,100030.56
2023-03-12T14:04:35.972Z,100016.19
2023-03-12T14:07:29.919Z,100011.16
2023-03-12T14:10:08.960Z,99996.06
2023-03-12T14:12:45.019Z,99994.56
2023-03-12T14:15:25.881Z,100006.91
2023-03-12T14:17:58.005Z,100000.56
2023-03-12T14:20:30.705Z,99997.09
2023-03-12T14:23:01.841Z,100004.94
2023-03-12T14:25:38.829Z,100006.28
2023-03-12T14:28:14.513Z,99999.25
2023-03-12T14:30:48.456Z,99996.06
2023-03-12T14:33:17.571Z,99997.22
2023-03-12T14:35:52.171Z,99998.00
2023-03-12T14:38:26.272Z,100002.03
2023-03-12T14:40:58.782Z,100006.41
2023-03-12T14:43:29.377Z,100001.56
2023-03-12T14:45:58.592Z,99995.53
2023-03-12T14:48:30.757Z,99993.81
2023-03-12T14:51:04.189Z,99998.34
2023-03-12T14:53:35.746Z,99991.16
2023-03-12T14:56:07.453Z,99994.16
2023-03-12T14:58:36.670Z,99994.16
2023-03-12T15:01:08.383Z,99983.59
2023-03-12T15:03:43.531Z,99989.66
2023-03-12T15:06:18.730Z,99981.56
2023-03-12T15:08:46.730Z,99982.56
2023-03-12T15:11:15.409Z,99993.78
2023-03-12T15:13:47.247Z,99988.44
2023-03-12T15:16:15.151Z,99987.59
2023-03-12T15:18:43.757Z,99996.66
2023-03-12T15:21:11.721Z,99985.59
2023-03-12T15:23:45.530Z,99988.94
2023-03-12T15:26:16.705Z,99983.25
2023-03-12T15:28:45.119Z,99980.88
2023-03-12T15:31:15.689Z,99986.56
2023-03-12T15:33:44.585Z,99955.72
2023-03-12T15:36:26.941Z,99953.38
2023-03-12T15:39:00.317Z,99955.00
2023-03-12T15:41:30.796Z,99964.22
2023-03-12T15:44:00.768Z,99982.63
2023-03-12T15:46:29.673Z,99969.03
2023-03-12T15:49:00.104Z,99980.91
2023-03-12T15:51:31.695Z,99974.34
2023-03-12T15:54:07.494Z,99957.94
2023-03-12T15:56:36.807Z,99966.63
2023-03-12T15:59:20.833Z,99974.31
2023-03-12T16:01:49.833Z,99980.16
2023-03-12T16:04:19.407Z,99972.59
2023-03-12T16:06:48.827Z,99967.22
2023-03-12T16:09:20.859Z,99973.09
2023-03-12T16:11:49.386Z,99970.22
2023-03-12T16:14:21.125Z,99963.19
2023-03-12T16:16:49.036Z,99978.06
2023-03-12T16:19:19.137Z,99969.75
2023-03-12T16:21:46.931Z,99964.81
2023-03-12T16:24:16.448Z,99962.66
2023-03-12T16:26:50.098Z,99970.88
2023-03-12T16:29:19.533Z,99962.84
2023-03-12T16:31:52.467Z,99964.50
2023-03-12T16:34:20.214Z,99957.09
2023-03-12T16:36:48.050Z,99957.78
2023-03-12T16:39:17.750Z,99967.31
2023-03-12T16:41:48.234Z,99967.13
2023-03-12T16:44:20.823Z,99968.63
2023-03-12T16:46:48.637Z,99970.94
2023-03-12T16:49:20.798Z,99971.41
2023-03-12T16:51:48.993Z,99972.91
2023-03-12T16:54:16.678Z,99973.28
2023-03-12T16:56:47.820Z,99975.41
2023-03-12T16:59:24.655Z,99977.06
2023-03-12T17:01:52.503Z,99980.78
2023-03-12T17:04:20.469Z,99985.94
2023-03-12T17:06:48.212Z,99991.31
2023-03-12T17:09:15.800Z,99993.00
2023-03-12T17:11:43.632Z,99982.75
2023-03-12T17:14:19.660Z,99994.13
2023-03-12T17:16:47.271Z,99993.78
2023-03-12T17:19:15.132Z,99993.59
2023-03-12T17:21:44.010Z,99991.38
2023-03-12T17:24:13.875Z,99984.63
2023-03-12T17:26:41.642Z,99984.25
2023-03-12T17:29:09.272Z,99993.81
2023-03-12T17:31:38.391Z,99996.13
2023-03-12T17:34:06.404Z,99986.88
2023-03-12T17:36:37.014Z,99985.66
2023-03-12T17:39:04.753Z,99983.66
2023-03-12T17:41:32.961Z,99986.97
2023-03-12T17:44:02.102Z,99989.50
2023-03-12T17:46:30.558Z,99985.78
2023-03-12T17:49:00.296Z,99980.25
2023-03-12T17:51:27.942Z,99980.88
2023-03-12T17:53:55.650Z,99975.50
2023-03-12T17:56:23.359Z,99975.31
2023-03-12T17:58:51.045Z,99975.13
2023-03-12T18:01:18.752Z,99976.81
2023-03-12T18:03:46.593Z,99983.47
2023-03-12T18:06:15.812Z,99989.50
2023-03-12T18:08:46.186Z,99989.69
2023-03-12T18:11:13.921Z,99999.00
2023-03-12T18:13:41.570Z,99997.88
2023-03-12T18:16:10.449Z,99994.38
2023-03-12T18:18:38.138Z,99996.41
2023-03-12T18:21:06.295Z,99992.69
2023-03-12T18:23:35.335Z,99995.03
2023-03-12T18:26:03.618Z,99998.16
2023-03-12T18:28:31.420Z,99993.91
2023-03-12T18:30:59.625Z,99995.22
2023-03-12T18:33:27.379Z,99996.69
2023-03-12T18:35:56.324Z,99993.44
2023-03-12T18:38:24.018Z,99988.53
2023-03-12T18:40:53.722Z,99985.63
2023-03-12T18:43:22.064Z,99991.47
2023-03-12T18:45:50.827Z,99996.47
2023-03-12T18:48:18.636Z,99999.44
2023-03-12T18:50:46.291Z,99998.03
2023-03-12T18:53:14.049Z,99998.50
2023-03-12T18:55:42.093Z,99994.59
2023-03-12T18:58:11.166Z,100000.25
2023-03-12T19:00:39.052Z,100007.59
2023-03-12T19:03:06.827Z,100007.94
2023-03-12T19:05:35.061Z,100004.69
2023-03-12T19:08:02.987Z,99996.44
2023-03-12T19:10:30.743Z,99998.72
2023-03-12T19:12:59.121Z,100008.88
2023-03-12T19:15:28.765Z,100007.19
2023-03-12T19:17:57.047Z,100004.69
2023-03-12T19:20:25.010Z,100009.25
2023-03-12T19:22:52.595Z,100003.69
2023-03-12T19:25:20.596Z,100010.09
2023-03-12T19:27:48.508Z,100008.22
2023-03-12T19:30:16.702Z,100011.38
2023-03-12T19:32:46.003Z,100018.41
2023-03-12T19:35:15.181Z,100012.84
2023-03-12T19:37:42.897Z,100022.19
2023-03-12T19:40:13.527Z,100015.59
2023-03-12T19:42:41.578Z,100012.72
2023-03-12T19:45:10.834Z,100006.78
2023-03-12T19:47:38.529Z,100002.22
2023-03-12T19:50:09.058Z,99997.47
2023-03-12T19:52:36.851Z,99992.72
2023-03-12T19:55:05.792Z,99993.56
2023-03-12T19:57:35.320Z,99990.69
2023-03-12T20:00:07.313Z,99984.91
2023-03-12T20:02:35.275Z,99966.72
2023-03-12T20:05:04.230Z,99959.06
2023-03-12T20:07:33.561Z,99962.59
2023-03-12T20:10:01.326Z,99958.88
2023-03-12T20:12:29.116Z,99964.06
2023-03-12T20:14:56.816Z,99956.00
2023-03-12T20:17:24.673Z,99955.13
2023-03-12T20:19:52.268Z,99962.00
2023-03-12T20:22:20.105Z,99953.09
2023-03-12T20:24:49.095Z,99960.16
2023-03-12T20:27:17.854Z,99956.63
2023-03-12T20:29:46.044Z,99962.84
2023-03-12T20:32:14.073Z,99970.72
2023-03-12T20:34:41.881Z,99969.50
2023-03-12T20:37:09.548Z,99983.78
2023-03-12T20:39:37.437Z,99986.13
2023-03-12T20:42:06.713Z,99996.03
2023-03-12T20:44:34.441Z,99991.31
2023-03-12T20:47:02.429Z,99996.28
2023-03-12T20:49:30.144Z,100005.19
2023-03-12T20:51:58.604Z,99997.31
2023-03-12T20:54:28.030Z,99997.97
2023-03-12T20:56:55.762Z,99997.31
2023-03-12T20:59:24.778Z,99994.41
2023-03-12T21:01:52.371Z,99995.47
2023-03-12T21:04:20.253Z,99995.28
2023-03-12T21:06:51.494Z,99986.34
2023-03-12T21:09:19.687Z,99983.84
2023-03-12T21:11:47.543Z,99984.69
2023-03-12T21:14:15.178Z,99975.75
2023-03-12T21:16:44.173Z,99983.84
2023-03-12T21:19:11.930Z,99980.31
2023-03-12T21:21:39.722Z,99967.69
2023-03-12T21:24:08.460Z,99970.38
2023-03-12T21:26:36.430Z,99973.06
2023-03-12T21:29:04.874Z,99974.53
2023-03-12T21:31:32.576Z,99972.69
2023-03-12T21:34:02.436Z,99962.94
2023-03-12T21:36:30.316Z,99968.13
2023-03-12T21:38:58.148Z,99968.13
2023-03-12T21:41:25.850Z,99964.63
2023-03-12T21:43:53.648Z,99958.19
2023-03-12T21:46:24.533Z,99958.19
2023-03-12T21:48:53.814Z,99959.84
2023-03-12T21:51:26.049Z,99945.56
2023-03-12T21:53:55.272Z,99949.09
2023-03-12T21:56:25.263Z,99950.75
2023-03-12T21:58:53.515Z,99947.84
2023-03-12T22:01:21.564Z,99940.63
2023-03-12T22:03:49.315Z,99942.47
2023-03-12T22:06:17.082Z,99939.56
2023-03-12T22:08:48.000Z,99934.00
2023-03-12T22:11:16.584Z,99930.28
2023-03-12T22:13:44.496Z,99930.06
2023-03-12T22:16:14.089Z,99917.25
2023-03-12T22:18:44.021Z,99920.59
2023-03-12T22:21:16.154Z,99919.34
2023-03-12T22:23:43.889Z,99917.94
2023-03-12T22:26:12.978Z,99918.75
2023-03-12T22:28:40.941Z,99911.94
2023-03-12T22:31:09.645Z,99899.94
2023-03-12T22:33:37.685Z,99895.19
2023-03-12T22:36:07.830Z,99891.28
2023-03-12T22:38:36.956Z,99899.16
2023-03-12T22:41:18.194Z,99897.06
2023-03-12T22:43:46.955Z,99885.47
2023-03-12T22:46:16.857Z,99885.06
2023-03-12T22:48:44.840Z,99884.69
2023-03-12T22:51:13.937Z,99888.00
2023-03-12T22:53:41.655Z,99877.22
2023-03-12T22:56:11.314Z,99872.47
2023-03-12T22:58:43.447Z,99875.16
2023-03-12T23:01:12.540Z,99871.41
2023-03-12T23:03:41.827Z,99860.63
2023-03-12T23:06:10.337Z,99855.06
2023-03-12T23:08:38.769Z,99861.91
2023-03-12T23:11:07.641Z,99851.13
2023-03-12T23:13:37.425Z,99850.50
2023-03-12T23:16:11.549Z,99844.09
2023-03-12T23:18:39.601Z,99844.91
2023-03-12T23:21:09.244Z,99841.84
2023-03-12T23:23:39.320Z,99839.94
2023-03-12T23:26:09.193Z,99837.25
2023-03-12T23:28:36.861Z,99830.84
2023-03-12T23:31:07.691Z,99829.59
2023-03-12T23:33:37.503Z,99827.53
2023-03-12T23:36:08.045Z,99824.63
2023-03-12T23:38:37.659Z,99814.69
2023-03-12T23:41:07.795Z,99812.41
2023-03-12T23:43:36.793Z,99805.16
2023-03-12T23:46:06.476Z,99796.03
2023-03-12T23:48:35.770Z,99802.25
2023-03-12T23:51:12.371Z,99805.97
2023-03-12T23:53:42.081Z,99793.53
2023-03-12T23:56:12.159Z,99799.97
2023-03-12T23:58:39.963Z,99792.69
